Time;durP1;ratioP1;P1;durP2;ratioP2;P2;SDS_P1;SDS_P2;PMS_P1;PMS_P2;Temp;Humidity;BMP_temperature;BMP_pressure;BME280_temperature;BME280_humidity;BME280_pressure;Samples;Min_cycle;Max_cycle;Signal;HPM_P1;HPM_P2
2023/04/09 00:01:57;;;;;;;30.90;25.38;;;7.30;99.90;;;;;;4865075;29;20275;-73
2023/04/09 00:04:23;;;;;;;30.13;24.55;;;7.30;99.90;;;;;;4864943;29;20216;-73
2023/04/09 00:06:48;;;;;;;29.55;24.50;;;7.40;99.90;;;;;;4865444;29;20210;-73
2023/04/09 00:09:15;;;;;;;29.80;24.77;;;7.40;99.90;;;;;;4881675;29;20188;-73
2023/04/09 00:11:40;;;;;;;30.20;24.45;;;7.40;99.90;;;;;;4864305;29;20678;-73
2023/04/09 00:14:06;;;;;;;32.33;25.15;;;7.50;99.90;;;;;;4864837;29;20188;-73
2023/04/09 00:16:32;;;;;;;30.08;24.67;;;7.50;99.90;;;;;;4864948;29;20207;-73
2023/04/09 00:18:57;;;;;;;29.05;24.20;;;7.50;99.90;;;;;;4864775;29;20275;-73
2023/04/09 00:21:23;;;;;;;29.63;24.27;;;7.50;99.90;;;;;;4864619;29;20189;-73
2023/04/09 00:23:48;;;;;;;30.83;24.98;;;7.50;99.90;;;;;;4881487;29;20570;-73
2023/04/09 00:26:14;;;;;;;29.30;24.27;;;7.40;99.90;;;;;;4864851;29;20200;-73
2023/04/09 00:28:40;;;;;;;29.35;23.52;;;7.40;99.90;;;;;;4864558;29;20256;-73
2023/04/09 00:31:05;;;;;;;28.67;24.13;;;7.20;99.90;;;;;;4864467;29;20196;-73
2023/04/09 00:33:31;;;;;;;29.35;24.05;;;7.20;99.90;;;;;;4864438;29;20191;-73
2023/04/09 00:35:56;;;;;;;35.67;24.77;;;7.10;99.90;;;;;;4864386;29;20216;-73
2023/04/09 00:38:22;;;;;;;32.65;26.42;;;7.10;99.90;;;;;;4881067;29;20224;-73
2023/04/09 00:40:49;;;;;;;33.60;26.58;;;7.00;99.90;;;;;;4864663;29;20180;-73
2023/04/09 00:43:15;;;;;;;29.13;24.17;;;7.10;99.90;;;;;;4864037;29;20220;-73
2023/04/09 00:45:41;;;;;;;30.33;24.40;;;7.10;99.90;;;;;;4880885;29;20177;-73
2023/04/09 00:48:07;;;;;;;31.15;24.70;;;7.10;99.90;;;;;;4865011;29;20192;-73
2023/04/09 00:50:33;;;;;;;29.77;24.45;;;7.20;99.90;;;;;;4864073;29;20191;-73
2023/04/09 00:52:59;;;;;;;31.50;24.42;;;7.20;99.90;;;;;;4864149;29;20279;-73
2023/04/09 00:55:25;;;;;;;29.63;24.08;;;7.10;99.90;;;;;;4864401;29;20244;-73
2023/04/09 00:57:51;;;;;;;30.00;23.75;;;7.10;99.90;;;;;;4864717;29;20208;-73
2023/04/09 01:00:16;;;;;;;29.50;24.55;;;7.10;99.90;;;;;;4880660;29;20239;-73
2023/04/09 01:36:23;;;;;;;29.85;23.42;;;7.10;99.90;;;;;;5038814;23;20280;31
2023/04/09 01:38:51;;;;;;;30.75;24.02;;;6.90;99.90;;;;;;4843796;29;20273;-87
2023/04/09 01:41:23;;;;;;;29.48;23.77;;;7.00;99.90;;;;;;4861289;29;20193;-87
2023/04/09 01:43:52;;;;;;;27.83;23.30;;;7.00;99.90;;;;;;4860825;29;20208;-87
2023/04/09 01:46:20;;;;;;;28.45;22.60;;;7.00;99.90;;;;;;4851801;29;20201;-87
2023/04/09 01:48:46;;;;;;;28.48;22.92;;;6.90;99.90;;;;;;4842250;29;20709;-87
2023/04/09 01:51:13;;;;;;;28.10;22.45;;;6.80;99.90;;;;;;4826740;29;20268;-87
2023/04/09 01:53:39;;;;;;;26.60;21.85;;;6.80;99.90;;;;;;4826915;29;20185;-87
2023/04/09 01:56:06;;;;;;;28.55;22.13;;;6.80;99.90;;;;;;4826988;29;20262;-87
2023/04/09 01:58:35;;;;;;;27.80;21.58;;;6.70;99.90;;;;;;4827406;29;20280;-87
2023/04/09 02:01:06;;;;;;;27.77;22.08;;;6.70;99.90;;;;;;4826451;29;20277;-87
2023/04/09 02:03:55;;;;;;;25.08;21.58;;;6.70;99.90;;;;;;4841901;29;20638;-87
2023/04/09 02:06:37;;;;;;;26.33;21.63;;;6.80;99.90;;;;;;4827178;29;20206;-87
2023/04/09 02:09:06;;;;;;;25.20;21.13;;;6.90;99.90;;;;;;4827270;29;20177;-88
2023/04/09 02:11:33;;;;;;;27.30;23.35;;;6.80;99.90;;;;;;4826441;29;20215;-88
2023/04/09 02:14:00;;;;;;;29.45;22.83;;;6.80;99.90;;;;;;4826709;29;20192;-88
2023/04/09 02:16:26;;;;;;;27.15;22.35;;;6.90;99.90;;;;;;4826419;29;20209;-87
2023/04/09 02:18:55;;;;;;;30.55;23.52;;;6.80;99.90;;;;;;4826507;29;20182;-87
2023/04/09 02:21:22;;;;;;;26.85;22.00;;;6.80;99.90;;;;;;4842624;29;20193;-87
2023/04/09 02:23:48;;;;;;;31.50;25.23;;;6.70;99.90;;;;;;4826627;29;20210;-87
2023/04/09 02:26:14;;;;;;;29.80;23.60;;;6.60;99.90;;;;;;4826419;29;20205;-87
2023/04/09 02:28:40;;;;;;;29.05;23.35;;;6.60;99.90;;;;;;4843020;29;20550;-87
2023/04/09 02:31:07;;;;;;;28.15;21.77;;;6.70;99.90;;;;;;4826654;29;20200;-90
2023/04/09 02:33:34;;;;;;;26.33;22.42;;;6.70;99.90;;;;;;4827704;29;20280;-90
2023/04/09 02:36:01;;;;;;;25.88;21.38;;;6.80;99.90;;;;;;4829914;29;20210;-90
2023/04/09 02:38:30;;;;;;;25.10;21.35;;;6.80;99.90;;;;;;4829263;29;20193;-90
2023/04/09 02:40:59;;;;;;;26.42;21.98;;;6.80;99.90;;;;;;4829618;29;20193;-90
2023/04/09 02:43:25;;;;;;;27.50;22.52;;;6.80;99.90;;;;;;4846304;29;20574;-88
2023/04/09 02:45:51;;;;;;;30.20;22.38;;;6.80;99.90;;;;;;4829654;29;20201;-88
2023/04/09 02:48:17;;;;;;;24.35;20.77;;;6.90;99.90;;;;;;4846375;29;20190;-87
2023/04/09 02:50:42;;;;;;;26.65;21.48;;;6.90;99.90;;;;;;4830147;29;20224;-87
2023/04/09 02:53:08;;;;;;;23.33;20.35;;;6.80;99.90;;;;;;4829507;29;20232;-87
2023/04/09 02:55:34;;;;;;;23.23;20.73;;;6.80;99.90;;;;;;4846053;29;20205;-87
2023/04/09 02:57:59;;;;;;;25.98;21.67;;;6.70;99.90;;;;;;4830040;29;20182;-87
2023/04/09 03:00:25;;;;;;;24.00;20.35;;;6.70;99.90;;;;;;4829293;29;20181;-87
2023/04/09 03:02:51;;;;;;;23.20;20.08;;;6.80;99.90;;;;;;4829124;29;20213;-87
2023/04/09 03:05:16;;;;;;;23.42;20.55;;;6.80;99.90;;;;;;4829041;29;20214;-87
2023/04/09 03:07:42;;;;;;;24.77;20.75;;;6.70;99.90;;;;;;4829233;29;20188;-87
2023/04/09 03:10:08;;;;;;;24.50;20.25;;;6.60;99.90;;;;;;4829348;29;20182;-87
2023/04/09 03:12:34;;;;;;;25.17;20.83;;;6.60;99.90;;;;;;4829196;29;20186;-87
2023/04/09 03:15:00;;;;;;;25.35;21.67;;;6.70;99.90;;;;;;4829945;29;20185;-87
2023/04/09 03:17:26;;;;;;;35.05;29.17;;;6.70;99.90;;;;;;4845749;29;20616;-87
2023/04/09 03:19:58;;;;;;;27.90;23.50;;;6.70;99.90;;;;;;4845713;29;20185;-87
2023/04/09 03:22:23;;;;;;;30.00;24.48;;;6.60;99.90;;;;;;4829299;29;20182;-88
2023/04/09 03:24:49;;;;;;;26.83;22.27;;;6.70;99.90;;;;;;4829050;29;20311;-88
2023/04/09 03:27:15;;;;;;;25.58;22.02;;;6.70;99.90;;;;;;4829267;29;20223;-87
2023/04/09 03:29:41;;;;;;;25.02;21.63;;;6.80;99.90;;;;;;4828811;29;20712;-87
2023/04/09 03:32:07;;;;;;;23.75;20.27;;;6.90;99.90;;;;;;4829383;29;20185;-90
2023/04/09 03:34:33;;;;;;;26.30;21.38;;;6.80;99.90;;;;;;4828638;29;20245;-91
2023/04/09 03:36:58;;;;;;;26.58;21.77;;;6.80;99.90;;;;;;4828618;29;20286;-90
2023/04/09 03:39:24;;;;;;;25.08;20.77;;;6.70;99.90;;;;;;4828720;29;20242;-90
2023/04/09 03:41:50;;;;;;;27.13;21.83;;;6.70;99.90;;;;;;4828554;29;20193;-90
2023/04/09 03:44:16;;;;;;;28.10;22.90;;;6.60;99.90;;;;;;4827995;29;20681;-90
2023/04/09 03:46:41;;;;;;;27.77;22.60;;;6.70;99.90;;;;;;4827879;29;20205;-90
2023/04/09 03:49:07;;;;;;;30.45;24.05;;;6.70;99.90;;;;;;4844169;29;20237;-90
2023/04/09 03:51:32;;;;;;;30.35;23.92;;;6.60;99.90;;;;;;4828449;29;20186;-90
2023/04/09 03:53:58;;;;;;;31.27;23.23;;;6.50;99.90;;;;;;4828529;29;20540;-90
2023/04/09 03:56:24;;;;;;;30.63;22.88;;;6.50;99.90;;;;;;4828107;29;20292;-90
2023/04/09 03:58:50;;;;;;;25.90;21.77;;;6.50;99.90;;;;;;4828372;29;20186;-90
2023/04/09 04:01:15;;;;;;;29.38;23.20;;;6.50;99.90;;;;;;4828348;29;20196;-90
2023/04/09 04:03:41;;;;;;;27.75;23.13;;;6.60;99.90;;;;;;4828257;29;20267;-90
2023/04/09 04:06:07;;;;;;;27.90;22.92;;;6.60;99.90;;;;;;4828096;29;20202;-90
2023/04/09 04:08:32;;;;;;;28.25;23.38;;;6.60;99.90;;;;;;4828130;29;20188;-90
2023/04/09 04:11:05;;;;;;;27.85;22.70;;;6.60;99.90;;;;;;4828103;29;20268;-90
2023/04/09 04:13:31;;;;;;;28.23;22.88;;;6.60;99.90;;;;;;4828121;29;20186;-90
2023/04/09 04:15:57;;;;;;;26.23;21.63;;;6.50;99.90;;;;;;4828059;29;20266;-90
2023/04/09 04:18:22;;;;;;;29.17;22.67;;;6.50;99.90;;;;;;4844453;29;20225;-90
2023/04/09 04:20:48;;;;;;;26.05;21.85;;;6.60;99.90;;;;;;4828034;29;20242;-90
2023/04/09 04:23:14;;;;;;;27.33;22.35;;;6.70;99.90;;;;;;4828045;29;20256;-90
2023/04/09 04:25:41;;;;;;;26.15;22.55;;;6.70;99.90;;;;;;4827776;29;20692;-90
2023/04/09 04:28:07;;;;;;;25.83;21.80;;;6.60;99.90;;;;;;4827731;29;20185;-90
2023/04/09 04:30:32;;;;;;;26.73;22.33;;;6.70;99.90;;;;;;4827797;29;20186;-90
2023/04/09 04:32:59;;;;;;;24.38;20.25;;;6.80;99.90;;;;;;4827831;29;20181;-90
2023/04/09 04:35:24;;;;;;;26.25;21.70;;;6.80;99.90;;;;;;4827568;29;20185;-90
2023/04/09 04:37:50;;;;;;;27.73;23.00;;;6.60;99.90;;;;;;4827573;29;20311;-89
2023/04/09 04:40:16;;;;;;;27.02;21.58;;;6.50;99.90;;;;;;4827965;29;20190;-90
2023/04/09 04:42:42;;;;;;;24.58;21.20;;;6.50;99.90;;;;;;4827783;29;20193;-89
2023/04/09 04:45:08;;;;;;;26.40;21.13;;;6.50;99.90;;;;;;4827648;29;20186;-90
2023/04/09 04:47:34;;;;;;;26.02;21.17;;;6.50;99.90;;;;;;4827486;29;20818;-90
2023/04/09 04:50:00;;;;;;;24.33;20.85;;;6.50;99.90;;;;;;4842729;29;20276;-90
2023/04/09 04:52:26;;;;;;;23.58;20.33;;;6.50;99.90;;;;;;4827806;29;20178;-90
2023/04/09 04:54:51;;;;;;;27.60;21.48;;;6.50;99.90;;;;;;4827589;29;20567;-90
2023/04/09 04:57:17;;;;;;;25.25;21.40;;;6.60;99.90;;;;;;4826977;29;20202;-90
2023/04/09 04:59:43;;;;;;;28.20;22.52;;;6.60;99.90;;;;;;4827354;29;20216;-90
2023/04/09 05:02:08;;;;;;;27.65;23.70;;;6.60;99.90;;;;;;4828035;29;20185;-89
2023/04/09 05:04:34;;;;;;;30.23;23.77;;;6.60;99.90;;;;;;4828192;29;20270;-89
2023/04/09 05:07:00;;;;;;;29.02;23.77;;;6.50;99.90;;;;;;4827195;29;20201;-89
2023/04/09 05:09:26;;;;;;;28.25;23.40;;;6.60;99.90;;;;;;4827174;29;20182;-89
2023/04/09 05:11:51;;;;;;;32.03;23.88;;;6.50;99.90;;;;;;4827093;29;20268;-90
2023/04/09 05:14:17;;;;;;;29.48;23.95;;;6.60;99.90;;;;;;4843743;29;20196;-90
2023/04/09 05:16:43;;;;;;;26.42;22.67;;;6.60;99.90;;;;;;4827083;29;20237;-90
2023/04/09 05:19:09;;;;;;;25.35;21.98;;;6.70;99.90;;;;;;4827081;29;20181;-90
2023/04/09 05:21:34;;;;;;;25.42;20.75;;;6.80;99.90;;;;;;4826945;29;20186;-90
2023/04/09 05:24:01;;;;;;;26.15;21.98;;;6.90;99.90;;;;;;4826906;29;20212;-89
2023/04/09 05:26:27;;;;;;;24.15;21.55;;;7.10;99.90;;;;;;4826826;29;20202;-89
2023/04/09 05:28:53;;;;;;;24.60;21.08;;;7.20;99.90;;;;;;4827243;29;20706;-89
2023/04/09 05:31:19;;;;;;;23.95;20.88;;;7.30;99.90;;;;;;4827392;29;20182;-89
2023/04/09 05:34:40;;;;;;;29.48;23.40;;;7.30;99.90;;;;;;4827323;29;20272;-89
2023/04/09 05:37:06;;;;;;;27.38;22.48;;;7.30;99.90;;;;;;4841871;29;20221;-89
2023/04/09 05:39:33;;;;;;;26.48;21.88;;;7.40;99.90;;;;;;4828332;29;20210;-89
2023/04/09 05:41:58;;;;;;;26.02;22.35;;;7.30;99.90;;;;;;4827184;29;20701;-89
